createdAt,value
2023-05-01T00:00:44.685Z,5.67
2023-05-01T00:02:16.662Z,6.50
2023-05-01T00:03:48.736Z,13.48
2023-05-01T00:05:20.855Z,5.03
2023-05-01T00:06:52.847Z,7.20
2023-05-01T00:08:24.832Z,5.45
2023-05-01T00:09:57.703Z,7.07
2023-05-01T00:11:29.987Z,10.57
2023-05-01T00:13:01.845Z,10.70
2023-05-01T00:14:33.887Z,6.47
2023-05-01T00:16:10.178Z,9.27
2023-05-01T00:17:42.167Z,7.63
2023-05-01T00:19:18.578Z,7.75
2023-05-01T00:20:50.571Z,8.82
2023-05-01T00:22:22.485Z,7.20
2023-05-01T00:23:54.550Z,5.47
2023-05-01T00:25:26.720Z,5.88
2023-05-01T00:26:58.880Z,8.00
2023-05-01T00:28:30.747Z,10.27
2023-05-01T00:30:03.650Z,7.83
2023-05-01T00:33:08.266Z,11.65
2023-05-01T00:34:40.261Z,6.57
2023-05-01T00:36:12.188Z,10.05
2023-05-01T00:37:44.059Z,7.30
2023-05-01T00:39:15.939Z,7.45
2023-05-01T00:40:47.975Z,5.70
2023-05-01T00:42:19.816Z,6.70
2023-05-01T00:43:51.742Z,7.63
2023-05-01T00:45:23.716Z,5.75
2023-05-01T00:46:56.765Z,6.23
2023-05-01T00:48:28.695Z,6.50
2023-05-01T00:50:00.983Z,10.65
2023-05-01T00:51:33.844Z,9.57
2023-05-01T00:54:37.938Z,5.03
2023-05-01T00:56:10.136Z,8.95
2023-05-01T00:57:42.081Z,11.88
2023-05-01T00:59:14.956Z,4.97
2023-05-01T01:02:19.475Z,6.93
2023-05-01T01:03:54.953Z,8.70
2023-05-01T01:05:28.531Z,8.52
2023-05-01T01:07:24.136Z,6.85
2023-05-01T01:09:08.436Z,7.20
2023-05-01T01:10:44.338Z,7.13
2023-05-01T01:12:26.783Z,3.22
2023-05-01T01:14:02.670Z,6.60
2023-05-01T01:15:40.795Z,6.85
2023-05-01T01:17:29.965Z,5.90
2023-05-01T01:19:04.517Z,8.30
2023-05-01T01:20:36.315Z,4.50
2023-05-01T01:22:12.159Z,6.13
2023-05-01T01:24:17.708Z,6.90
2023-05-01T01:26:10.925Z,4.75
2023-05-01T01:28:11.530Z,5.63
2023-05-01T01:29:51.863Z,7.47
2023-05-01T01:31:46.034Z,3.95
2023-05-01T01:33:38.131Z,8.73
2023-05-01T01:35:20.116Z,6.80
2023-05-01T01:37:05.333Z,5.80
2023-05-01T01:38:41.084Z,2.88
2023-05-01T01:40:19.564Z,5.85
2023-05-01T01:41:52.706Z,3.95
2023-05-01T01:43:26.603Z,5.65
2023-05-01T01:45:00.779Z,5.05
2023-05-01T01:46:36.652Z,3.67
2023-05-01T01:48:13.216Z,6.90
2023-05-01T01:49:49.831Z,6.35
2023-05-01T01:51:22.702Z,7.15
2023-05-01T01:54:49.266Z,5.45
2023-05-01T01:56:22.455Z,5.00
2023-05-01T01:57:54.639Z,4.53
2023-05-01T01:59:26.781Z,5.85
2023-05-01T02:00:59.672Z,4.13
2023-05-01T02:02:32.503Z,3.97
2023-05-01T02:04:05.733Z,4.30
2023-05-01T02:05:39.936Z,10.10
2023-05-01T02:07:12.908Z,3.90
2023-05-01T02:08:47.209Z,4.95
2023-05-01T02:10:20.210Z,4.50
2023-05-01T02:11:52.500Z,5.05
2023-05-01T02:13:28.832Z,5.00
2023-05-01T02:15:01.322Z,4.85
2023-05-01T02:16:34.430Z,4.13
2023-05-01T02:18:06.912Z,6.20
2023-05-01T02:19:40.740Z,4.43
2023-05-01T02:21:13.755Z,6.20
2023-05-01T02:24:18.789Z,6.72
2023-05-01T02:25:51.248Z,6.55
2023-05-01T02:27:47.396Z,5.20
2023-05-01T02:29:20.250Z,5.45
2023-05-01T02:30:52.884Z,5.60
2023-05-01T02:32:26.699Z,9.27
2023-05-01T02:33:58.700Z,4.53
2023-05-01T02:35:30.574Z,4.67
2023-05-01T02:37:04.775Z,6.40
2023-05-01T02:38:37.412Z,4.68
2023-05-01T02:40:11.957Z,5.65
2023-05-01T02:41:45.139Z,4.80
2023-05-01T02:43:20.147Z,6.65
2023-05-01T02:44:57.519Z,6.63
2023-05-01T02:46:31.773Z,4.95
2023-05-01T02:48:06.269Z,5.40
2023-05-01T02:49:38.370Z,8.00
2023-05-01T02:51:11.137Z,4.93
2023-05-01T02:52:43.850Z,6.07
2023-05-01T02:54:39.219Z,5.07
2023-05-01T02:56:11.247Z,7.50
2023-05-01T02:57:43.114Z,6.93
2023-05-01T02:59:14.953Z,3.85
2023-05-01T03:00:50.093Z,8.35
2023-05-01T03:02:23.088Z,6.07
2023-05-01T03:03:55.026Z,4.72
2023-05-01T03:05:27.090Z,6.45
2023-05-01T03:06:58.965Z,5.15
2023-05-01T03:08:31.348Z,4.28
2023-05-01T03:10:04.536Z,5.20
2023-05-01T03:11:36.502Z,4.93
2023-05-01T03:13:08.736Z,8.20
2023-05-01T03:14:40.692Z,5.88
2023-05-01T03:16:13.426Z,12.40
2023-05-01T03:17:45.401Z,11.48
2023-05-01T03:19:17.775Z,8.17
2023-05-01T03:20:57.217Z,4.38
2023-05-01T03:22:33.297Z,5.93
2023-05-01T03:24:05.664Z,3.95
2023-05-01T03:25:37.650Z,5.45
2023-05-01T03:27:10.235Z,4.75
2023-05-01T03:28:42.077Z,5.05
2023-05-01T03:30:14.308Z,4.37
2023-05-01T03:31:47.382Z,6.57
2023-05-01T03:33:19.401Z,4.55
2023-05-01T03:34:51.886Z,5.13
2023-05-01T03:36:25.666Z,6.97
2023-05-01T03:39:59.195Z,6.00
2023-05-01T03:41:43.425Z,5.82
2023-05-01T03:43:33.904Z,4.47
2023-05-01T03:45:11.744Z,6.47
2023-05-01T03:46:44.758Z,4.70
2023-05-01T03:48:23.544Z,6.30
2023-05-01T03:49:56.141Z,7.00
2023-05-01T03:53:00.869Z,6.22
2023-05-01T03:54:33.292Z,5.00
2023-05-01T03:56:15.386Z,5.68
2023-05-01T03:57:47.632Z,10.93
2023-05-01T03:59:19.597Z,10.70
2023-05-01T04:00:51.642Z,7.40
2023-05-01T04:02:23.723Z,10.18
2023-05-01T04:03:55.843Z,10.63
2023-05-01T04:05:27.896Z,15.32
2023-05-01T04:07:05.888Z,6.15
2023-05-01T04:08:37.942Z,6.45
2023-05-01T04:10:10.143Z,7.93
2023-05-01T04:11:47.402Z,7.63
2023-05-01T04:13:19.329Z,7.18
2023-05-01T04:14:51.859Z,8.80
2023-05-01T04:16:25.200Z,15.80
2023-05-01T04:19:29.349Z,5.38
2023-05-01T04:21:03.961Z,5.68
2023-05-01T04:22:35.926Z,6.85
2023-05-01T04:24:07.893Z,10.13
2023-05-01T04:25:39.838Z,7.03
2023-05-01T04:27:16.713Z,8.93
2023-05-01T04:28:48.662Z,11.73
2023-05-01T04:30:24.470Z,13.95
2023-05-01T04:31:56.632Z,16.00
2023-05-01T04:33:28.688Z,7.22
2023-05-01T04:35:01.290Z,6.22
2023-05-01T04:36:34.176Z,8.65
2023-05-01T04:38:06.775Z,10.87
2023-05-01T04:41:10.905Z,11.10
2023-05-01T04:42:43.629Z,17.73
2023-05-01T04:44:18.498Z,23.15
2023-05-01T04:45:50.423Z,14.53
2023-05-01T04:47:22.349Z,11.13
2023-05-01T04:48:54.322Z,8.43
2023-05-01T04:50:27.028Z,11.43
2023-05-01T04:51:58.955Z,8.07
2023-05-01T04:53:38.037Z,8.32
2023-05-01T04:55:12.645Z,8.10
2023-05-01T04:56:58.722Z,15.38
2023-05-01T04:58:30.609Z,25.15
2023-05-01T05:00:08.298Z,14.30
2023-05-01T05:01:49.027Z,16.02
2023-05-01T05:03:21.123Z,7.40
2023-05-01T05:04:56.701Z,12.60
2023-05-01T05:06:29.283Z,8.10
2023-05-01T05:08:01.459Z,11.50
2023-05-01T05:09:38.549Z,19.20
2023-05-01T05:11:11.203Z,30.98
2023-05-01T05:13:03.892Z,12.95
2023-05-01T05:14:36.557Z,17.33
2023-05-01T05:16:08.624Z,25.08
2023-05-01T05:17:40.616Z,23.63
2023-05-01T05:19:12.944Z,87.85
2023-05-01T05:20:47.419Z,23.35
2023-05-01T05:22:19.507Z,26.98
2023-05-01T05:24:11.419Z,13.45
2023-05-01T05:25:43.349Z,19.77
2023-05-01T05:27:16.172Z,75.40
2023-05-01T05:30:20.146Z,19.25
2023-05-01T05:31:52.245Z,20.65
2023-05-01T05:33:27.420Z,47.03
2023-05-01T05:34:59.698Z,34.65
2023-05-01T05:36:32.593Z,19.83
2023-05-01T05:38:04.486Z,9.37
2023-05-01T05:39:40.064Z,8.68
2023-05-01T05:41:12.038Z,12.37
2023-05-01T05:42:44.735Z,11.57
2023-05-01T05:44:16.606Z,6.63
2023-05-01T05:45:49.122Z,8.93
2023-05-01T05:47:21.087Z,7.40
2023-05-01T05:48:53.103Z,7.10
2023-05-01T05:50:25.190Z,9.70
2023-05-01T05:51:57.277Z,9.32
2023-05-01T05:53:30.047Z,8.43
2023-05-01T05:55:01.962Z,7.25
2023-05-01T05:56:33.928Z,6.00
2023-05-01T05:58:05.872Z,7.57
2023-05-01T05:59:37.828Z,9.75
2023-05-01T06:01:09.831Z,9.32
2023-05-01T06:02:43.156Z,7.82
2023-05-01T06:04:15.406Z,8.68
2023-05-01T06:05:50.517Z,8.57
2023-05-01T06:07:23.282Z,8.25
2023-05-01T06:10:27.416Z,7.20
2023-05-01T06:11:59.315Z,10.53
2023-05-01T06:13:31.230Z,10.70
2023-05-01T06:15:03.608Z,10.07
2023-05-01T06:18:08.312Z,10.35
2023-05-01T06:19:40.412Z,6.68
2023-05-01T06:21:14.970Z,7.32
2023-05-01T06:22:47.107Z,5.97
2023-05-01T06:24:22.304Z,9.38
2023-05-01T06:25:57.386Z,7.75
2023-05-01T06:27:29.295Z,8.63
2023-05-01T06:29:01.250Z,10.65
2023-05-01T06:30:33.480Z,5.70
2023-05-01T06:33:38.501Z,6.05
2023-05-01T06:35:22.135Z,7.63
2023-05-01T06:36:55.377Z,8.27
2023-05-01T06:39:59.882Z,8.23
2023-05-01T06:41:32.862Z,7.57
2023-05-01T06:43:05.051Z,8.98
2023-05-01T06:44:37.074Z,10.60
2023-05-01T06:46:09.203Z,8.77
2023-05-01T06:47:41.310Z,9.40
2023-05-01T06:50:45.969Z,6.15
2023-05-01T06:52:18.740Z,6.18
2023-05-01T06:53:50.593Z,9.77
2023-05-01T06:55:22.585Z,8.10
2023-05-01T06:56:54.545Z,9.37
2023-05-01T06:58:26.492Z,10.23
2023-05-01T06:59:58.687Z,8.43
2023-05-01T07:01:32.690Z,7.80
2023-05-01T07:03:05.968Z,9.45
2023-05-01T07:04:38.137Z,9.90
2023-05-01T07:06:10.175Z,8.30
2023-05-01T07:07:47.360Z,7.32
2023-05-01T07:09:22.627Z,6.70
2023-05-01T07:10:54.574Z,6.07
2023-05-01T07:12:27.054Z,10.23
2023-05-01T07:13:58.992Z,6.60
2023-05-01T07:15:31.180Z,10.48
2023-05-01T07:17:03.872Z,8.32
2023-05-01T07:18:35.889Z,10.82
2023-05-01T07:20:08.748Z,7.83
2023-05-01T07:23:13.697Z,6.80
2023-05-01T07:24:45.734Z,8.10
2023-05-01T07:26:17.767Z,7.18
2023-05-01T07:27:49.700Z,6.47
2023-05-01T07:29:21.701Z,7.50
2023-05-01T07:30:53.704Z,8.32
2023-05-01T07:32:25.671Z,6.95
2023-05-01T07:33:57.637Z,5.28
2023-05-01T07:35:29.832Z,6.18
2023-05-01T07:37:02.069Z,4.10
2023-05-01T07:38:34.742Z,4.78
2023-05-01T07:40:07.630Z,4.88
2023-05-01T07:41:39.613Z,6.40
2023-05-01T07:43:12.045Z,5.35
2023-05-01T07:46:16.309Z,4.95
2023-05-01T07:47:48.307Z,8.20
2023-05-01T07:49:20.477Z,5.03
2023-05-01T07:50:52.608Z,9.27
2023-05-01T07:52:24.542Z,3.60
2023-05-01T07:53:56.486Z,4.13
2023-05-01T07:55:28.566Z,5.00
2023-05-01T07:57:02.414Z,3.42
2023-05-01T07:58:35.174Z,4.85
2023-05-01T08:01:45.215Z,4.32
2023-05-01T08:03:17.205Z,5.32
2023-05-01T08:04:49.590Z,4.13
2023-05-01T08:06:21.695Z,6.05
2023-05-01T08:07:53.710Z,3.17
2023-05-01T08:09:25.872Z,4.88
2023-05-01T08:10:57.810Z,5.78
2023-05-01T08:12:31.447Z,6.00
2023-05-01T08:14:04.117Z,4.53
2023-05-01T08:17:11.270Z,4.03
2023-05-01T08:18:43.314Z,4.50
2023-05-01T08:20:15.345Z,7.32
2023-05-01T08:21:47.464Z,3.60
2023-05-01T08:23:19.538Z,5.05
2023-05-01T08:24:52.014Z,4.97
2023-05-01T08:26:24.005Z,6.35
2023-05-01T08:27:56.253Z,4.35
2023-05-01T08:29:28.273Z,3.78
2023-05-01T08:31:00.246Z,4.65
2023-05-01T08:32:32.630Z,5.38
2023-05-01T08:34:05.063Z,7.72
2023-05-01T08:35:37.006Z,4.47
2023-05-01T08:37:08.935Z,5.45
2023-05-01T08:38:41.163Z,4.60
2023-05-01T08:40:13.290Z,3.40
2023-05-01T08:41:46.895Z,4.53
2023-05-01T08:43:19.052Z,7.20
2023-05-01T08:44:51.509Z,4.72
2023-05-01T08:46:36.253Z,6.88
2023-05-01T08:48:10.602Z,7.22
2023-05-01T08:49:43.411Z,4.57
2023-05-01T08:51:16.943Z,5.18
2023-05-01T08:52:51.863Z,5.75
2023-05-01T08:54:24.103Z,5.45
2023-05-01T08:55:56.926Z,6.75
2023-05-01T08:59:01.582Z,5.18
2023-05-01T09:02:08.524Z,7.30
2023-05-01T09:03:41.085Z,4.30
2023-05-01T09:05:14.377Z,5.07
2023-05-01T09:06:46.662Z,5.28
2023-05-01T09:08:18.933Z,7.35
2023-05-01T09:09:51.262Z,5.10
2023-05-01T09:11:23.656Z,6.30
2023-05-01T09:13:01.841Z,9.88
2023-05-01T09:14:33.990Z,5.55
2023-05-01T09:16:06.726Z,6.93
2023-05-01T09:17:38.945Z,10.13
2023-05-01T09:19:11.056Z,7.93
2023-05-01T09:20:43.280Z,5.57
2023-05-01T09:22:16.134Z,9.25
2023-05-01T09:23:51.561Z,5.78
2023-05-01T09:25:23.809Z,6.50
2023-05-01T09:26:57.889Z,7.70
2023-05-01T09:28:47.056Z,7.00
2023-05-01T09:30:33.721Z,5.15
2023-05-01T09:32:26.435Z,9.07
2023-05-01T09:34:01.007Z,7.47
2023-05-01T09:35:34.409Z,8.02
2023-05-01T09:37:06.803Z,8.27
2023-05-01T09:38:43.953Z,9.00
2023-05-01T09:40:16.238Z,7.13
2023-05-01T09:41:52.827Z,7.53
2023-05-01T09:43:28.733Z,7.95
2023-05-01T09:45:01.923Z,5.50
2023-05-01T09:46:42.958Z,8.65
2023-05-01T09:48:14.902Z,10.15
2023-05-01T09:49:48.504Z,10.23
2023-05-01T09:51:21.462Z,8.40
2023-05-01T09:52:53.399Z,7.10
2023-05-01T09:54:25.441Z,7.03
2023-05-01T09:56:03.299Z,9.60
2023-05-01T09:57:36.467Z,7.78
2023-05-01T09:59:21.307Z,7.65
2023-05-01T10:00:53.284Z,6.90
2023-05-01T10:02:29.940Z,7.25
2023-05-01T10:04:02.168Z,7.20
2023-05-01T10:05:44.420Z,6.90
2023-05-01T10:07:16.638Z,5.38
2023-05-01T10:08:50.016Z,9.25
2023-05-01T10:10:23.033Z,6.03
2023-05-01T10:11:58.013Z,8.77
2023-05-01T10:13:31.103Z,6.32
2023-05-01T10:15:17.312Z,9.30
2023-05-01T10:16:59.629Z,8.88
2023-05-01T10:18:32.304Z,6.38
2023-05-01T10:20:04.626Z,5.60
2023-05-01T10:21:37.284Z,7.10
2023-05-01T10:23:09.731Z,7.35
2023-05-01T10:24:48.101Z,6.28
2023-05-01T10:26:20.903Z,6.57
2023-05-01T10:27:53.766Z,5.97
2023-05-01T10:30:58.554Z,5.05
2023-05-01T10:32:32.659Z,4.88
2023-05-01T10:34:04.877Z,6.55
2023-05-01T10:35:41.364Z,9.60
2023-05-01T10:37:31.772Z,7.10
2023-05-01T10:39:03.911Z,9.75
2023-05-01T10:40:49.926Z,8.10
2023-05-01T10:42:22.037Z,6.95
2023-05-01T10:44:23.608Z,7.03
2023-05-01T10:46:10.654Z,12.95
2023-05-01T10:47:43.183Z,9.77
2023-05-01T10:49:15.225Z,9.32
2023-05-01T10:51:10.087Z,7.82
2023-05-01T10:53:13.293Z,6.22
2023-05-01T10:54:45.268Z,6.65
2023-05-01T10:56:27.366Z,9.80
2023-05-01T10:57:59.361Z,9.13
2023-05-01T10:59:59.008Z,8.55
2023-05-01T11:01:38.434Z,7.82
2023-05-01T11:03:37.036Z,8.77
2023-05-01T11:05:09.081Z,8.32
2023-05-01T11:07:11.235Z,7.22
2023-05-01T11:10:28.240Z,8.20
2023-05-01T11:12:00.260Z,8.10
2023-05-01T11:13:57.309Z,7.47
2023-05-01T11:15:34.075Z,11.52
2023-05-01T11:17:06.182Z,7.53
2023-05-01T11:18:47.195Z,6.38
2023-05-01T11:20:24.923Z,8.57
2023-05-01T11:21:57.365Z,9.60
2023-05-01T11:23:31.760Z,9.07
2023-05-01T11:25:04.952Z,7.95
2023-05-01T11:26:40.053Z,9.23
2023-05-01T11:28:12.216Z,5.32
2023-05-01T11:29:46.166Z,4.63
2023-05-01T11:31:19.031Z,5.80
2023-05-01T11:32:52.188Z,7.18
2023-05-01T11:34:24.918Z,5.25
2023-05-01T11:37:45.032Z,7.32
2023-05-01T11:39:20.190Z,4.93
2023-05-01T11:40:57.655Z,7.28
2023-05-01T11:42:29.829Z,6.32
2023-05-01T11:44:02.046Z,6.15
2023-05-01T11:45:35.420Z,8.63
2023-05-01T11:47:09.346Z,8.80
2023-05-01T11:48:41.975Z,9.10
2023-05-01T11:50:15.009Z,6.45
2023-05-01T11:51:56.870Z,7.05
2023-05-01T11:53:29.442Z,7.90
2023-05-01T11:55:01.750Z,7.18
2023-05-01T11:56:35.047Z,6.32
2023-05-01T11:58:07.192Z,9.25
2023-05-01T11:59:39.108Z,9.15
2023-05-01T12:01:13.058Z,7.38
2023-05-01T12:03:15.137Z,8.93
2023-05-01T12:04:48.025Z,7.20
2023-05-01T12:06:20.217Z,9.60
2023-05-01T12:07:52.346Z,8.23
2023-05-01T12:09:27.167Z,9.52
2023-05-01T12:10:59.208Z,9.15
2023-05-01T12:12:31.315Z,11.55
2023-05-01T12:14:04.333Z,9.40
2023-05-01T12:15:42.811Z,11.60
2023-05-01T12:17:14.827Z,7.30
2023-05-01T12:18:47.285Z,6.80
2023-05-01T12:20:34.956Z,9.70
2023-05-01T12:22:07.914Z,9.15
2023-05-01T12:23:39.931Z,9.38
2023-05-01T12:25:11.999Z,8.65
2023-05-01T12:26:45.455Z,8.18
2023-05-01T12:28:20.113Z,7.07
2023-05-01T12:29:52.334Z,9.25
2023-05-01T12:31:25.286Z,9.63
2023-05-01T12:32:58.315Z,8.25
2023-05-01T12:34:33.919Z,7.28
2023-05-01T12:36:12.122Z,9.27
2023-05-01T12:37:44.239Z,5.97
2023-05-01T12:39:16.251Z,5.32
2023-05-01T12:40:55.975Z,6.68
2023-05-01T12:42:27.981Z,8.57
2023-05-01T12:44:00.144Z,7.65
2023-05-01T12:45:39.532Z,8.02
2023-05-01T12:47:12.664Z,9.00
2023-05-01T12:48:45.604Z,8.98
2023-05-01T12:50:17.689Z,9.10
2023-05-01T12:51:51.203Z,6.13
2023-05-01T12:53:24.684Z,8.65
2023-05-01T12:55:04.503Z,9.77
2023-05-01T12:56:36.580Z,4.60
2023-05-01T12:58:08.738Z,5.85
2023-05-01T12:59:42.787Z,5.30
2023-05-01T13:01:27.525Z,3.92
2023-05-01T13:03:03.970Z,5.03
2023-05-01T13:04:36.300Z,3.53
2023-05-01T13:06:09.339Z,3.35
2023-05-01T13:07:48.486Z,2.63
2023-05-01T13:09:20.849Z,5.28
2023-05-01T13:10:56.494Z,2.47
2023-05-01T13:12:29.245Z,3.67
2023-05-01T13:14:08.408Z,3.55
2023-05-01T13:15:40.510Z,2.03
2023-05-01T13:17:12.636Z,4.88
2023-05-01T13:18:49.504Z,5.78
2023-05-01T13:20:28.596Z,1.90
2023-05-01T13:22:01.108Z,2.30
2023-05-01T13:23:33.210Z,4.50
2023-05-01T13:25:15.040Z,3.22
2023-05-01T13:26:47.070Z,2.83
2023-05-01T13:28:19.979Z,3.17
2023-05-01T13:29:58.170Z,4.47
2023-05-01T13:31:30.838Z,4.90
2023-05-01T13:33:05.655Z,4.38
2023-05-01T13:34:42.320Z,7.22
2023-05-01T13:36:25.085Z,9.82
2023-05-01T13:37:58.189Z,6.45
2023-05-01T13:39:30.323Z,5.95
2023-05-01T13:41:02.253Z,6.50
2023-05-01T13:42:34.333Z,7.10
2023-05-01T13:44:06.928Z,7.22
2023-05-01T13:45:39.088Z,4.57
2023-05-01T13:47:16.404Z,4.45
2023-05-01T13:48:49.516Z,5.30
2023-05-01T13:50:21.773Z,4.68
2023-05-01T13:51:55.673Z,5.43
2023-05-01T13:53:27.793Z,4.07
2023-05-01T13:55:00.310Z,4.90
2023-05-01T13:56:35.440Z,5.07
2023-05-01T13:58:07.798Z,3.00
2023-05-01T13:59:41.429Z,6.50
2023-05-01T14:01:18.805Z,3.20
2023-05-01T14:02:53.472Z,3.00
2023-05-01T14:04:25.744Z,5.07
2023-05-01T14:05:57.691Z,4.65
2023-05-01T14:07:29.658Z,7.30
2023-05-01T14:09:01.690Z,5.55
2023-05-01T14:10:33.732Z,5.30
2023-05-01T14:12:05.865Z,6.28
2023-05-01T14:13:40.745Z,6.72
2023-05-01T14:15:13.254Z,15.63
2023-05-01T14:16:49.300Z,31.13
2023-05-01T14:18:22.308Z,26.70
2023-05-01T14:19:54.950Z,20.50
2023-05-01T14:21:28.464Z,13.32
2023-05-01T14:23:00.502Z,17.10
2023-05-01T14:24:36.531Z,15.02
2023-05-01T14:26:09.525Z,20.52
2023-05-01T14:27:41.438Z,13.35
2023-05-01T14:29:21.961Z,10.40
2023-05-01T14:30:55.099Z,13.10
2023-05-01T14:32:30.185Z,13.68
2023-05-01T14:34:06.542Z,10.63
2023-05-01T14:35:48.764Z,12.27
2023-05-01T14:37:20.772Z,14.15
2023-05-01T14:38:53.380Z,14.75
2023-05-01T14:40:29.867Z,12.52
2023-05-01T14:42:02.104Z,12.63
2023-05-01T14:43:36.657Z,13.10
2023-05-01T14:45:12.032Z,13.32
2023-05-01T14:46:52.019Z,14.32
2023-05-01T14:48:25.805Z,12.20
2023-05-01T14:49:57.798Z,13.57
2023-05-01T14:51:32.421Z,14.10
2023-05-01T14:53:04.492Z,15.90
2023-05-01T14:54:45.381Z,14.88
2023-05-01T14:56:17.371Z,11.90
2023-05-01T14:57:49.292Z,9.32
2023-05-01T14:59:23.095Z,9.40
2023-05-01T15:00:55.482Z,10.00
2023-05-01T15:02:27.878Z,9.20
2023-05-01T15:04:01.943Z,11.68
2023-05-01T15:05:38.649Z,14.25
2023-05-01T15:07:10.627Z,6.38
2023-05-01T15:08:43.100Z,6.68
2023-05-01T15:10:16.223Z,7.93
2023-05-01T15:11:48.240Z,7.82
2023-05-01T15:13:21.465Z,11.45
2023-05-01T15:14:53.419Z,9.02
2023-05-01T15:16:25.405Z,8.73
2023-05-01T15:17:57.517Z,5.93
2023-05-01T15:19:29.528Z,8.15
2023-05-01T15:21:01.554Z,6.60
2023-05-01T15:22:33.508Z,8.50
2023-05-01T15:24:05.672Z,5.60
2023-05-01T15:25:37.627Z,7.88
2023-05-01T15:27:09.597Z,7.32
2023-05-01T15:28:41.588Z,6.43
2023-05-01T15:30:15.158Z,7.03
2023-05-01T15:31:50.592Z,8.85
2023-05-01T15:33:27.860Z,9.50
2023-05-01T15:35:00.081Z,7.63
2023-05-01T15:36:33.033Z,8.75
2023-05-01T15:39:38.389Z,3.58
2023-05-01T15:41:10.455Z,6.45
2023-05-01T15:42:43.253Z,5.28
2023-05-01T15:45:47.430Z,4.90
2023-05-01T15:47:19.512Z,6.30
2023-05-01T15:48:52.071Z,5.20
2023-05-01T15:50:27.679Z,12.75
2023-05-01T15:51:59.770Z,6.82
2023-05-01T15:53:31.871Z,7.45
2023-05-01T15:55:04.040Z,7.72
2023-05-01T15:56:37.574Z,5.38
2023-05-01T15:58:09.732Z,4.93
2023-05-01T15:59:42.025Z,4.90
2023-05-01T16:01:14.651Z,6.38
2023-05-01T16:02:46.807Z,5.38
2023-05-01T16:04:19.028Z,6.38
2023-05-01T16:05:51.203Z,7.38
2023-05-01T16:07:23.247Z,4.15
2023-05-01T16:08:55.411Z,5.45
2023-05-01T16:10:28.038Z,5.15
2023-05-01T16:12:03.512Z,4.68
2023-05-01T16:13:42.282Z,4.20
2023-05-01T16:15:15.228Z,6.13
2023-05-01T16:16:47.361Z,5.07
2023-05-01T16:18:21.111Z,13.00
2023-05-01T16:19:53.590Z,5.30
2023-05-01T16:21:27.262Z,4.28
2023-05-01T16:22:59.285Z,5.00
2023-05-01T16:24:34.547Z,5.60
2023-05-01T16:26:06.750Z,6.13
2023-05-01T16:27:44.698Z,4.95
2023-05-01T16:29:16.783Z,5.55
2023-05-01T16:30:49.168Z,6.00
2023-05-01T16:32:21.232Z,7.65
2023-05-01T16:33:54.059Z,7.72
2023-05-01T16:37:02.574Z,5.97
2023-05-01T16:38:38.211Z,6.38
2023-05-01T16:40:16.620Z,6.05
2023-05-01T16:41:51.010Z,7.43
2023-05-01T16:43:23.029Z,7.95
2023-05-01T16:44:56.814Z,5.15
2023-05-01T16:46:31.165Z,6.43
2023-05-01T16:48:03.691Z,4.80
2023-05-01T16:49:36.710Z,6.40
2023-05-01T16:51:10.149Z,7.53
2023-05-01T16:52:42.187Z,7.40
2023-05-01T16:54:14.337Z,6.38
2023-05-01T16:55:46.539Z,6.68
2023-05-01T16:57:18.574Z,6.18
2023-05-01T16:58:50.561Z,9.10
2023-05-01T17:00:22.540Z,7.88
2023-05-01T17:01:54.632Z,8.57
2023-05-01T17:03:27.182Z,6.65
2023-05-01T17:04:59.661Z,8.27
2023-05-01T17:06:31.735Z,8.60
2023-05-01T17:08:03.749Z,8.60
2023-05-01T17:09:35.785Z,5.65
2023-05-01T17:11:07.818Z,11.02
2023-05-01T17:12:39.766Z,7.18
2023-05-01T17:14:12.128Z,9.35
2023-05-01T17:15:44.293Z,7.85
2023-05-01T17:17:18.136Z,9.18
2023-05-01T17:18:50.326Z,6.82
2023-05-01T17:20:22.490Z,7.78
2023-05-01T17:21:54.481Z,8.85
2023-05-01T17:23:29.201Z,8.13
2023-05-01T17:25:03.383Z,12.70
2023-05-01T17:26:35.650Z,8.32
2023-05-01T17:28:07.595Z,10.80
2023-05-01T17:29:39.621Z,9.57
2023-05-01T17:31:11.549Z,8.95
2023-05-01T17:32:43.598Z,9.83
2023-05-01T17:34:15.808Z,13.77
2023-05-01T17:35:48.388Z,14.85
2023-05-01T17:37:20.643Z,10.15
2023-05-01T17:38:53.768Z,8.60
2023-05-01T17:40:26.054Z,11.48
2023-05-01T17:41:58.190Z,12.30
2023-05-01T17:43:30.234Z,9.15
2023-05-01T17:45:02.258Z,11.43
2023-05-01T17:46:34.697Z,14.07
2023-05-01T17:48:06.846Z,11.68
2023-05-01T17:49:38.882Z,9.32
2023-05-01T17:51:11.040Z,11.90
2023-05-01T17:52:45.392Z,11.20
2023-05-01T17:54:17.835Z,9.00
2023-05-01T17:55:49.810Z,14.88
2023-05-01T17:57:21.738Z,11.43
2023-05-01T17:58:54.623Z,11.43
2023-05-01T18:01:59.962Z,9.73
2023-05-01T18:03:35.062Z,7.50
2023-05-01T18:05:07.313Z,10.00
2023-05-01T18:06:39.901Z,10.77
2023-05-01T18:08:12.269Z,10.90
2023-05-01T18:09:44.148Z,12.18
2023-05-01T18:11:16.081Z,10.47
2023-05-01T18:12:50.102Z,13.27
2023-05-01T18:14:21.958Z,8.23
2023-05-01T18:15:56.760Z,10.07
2023-05-01T18:17:28.704Z,10.23
2023-05-01T18:19:00.867Z,13.05
2023-05-01T18:20:32.854Z,12.07
2023-05-01T18:22:05.118Z,11.23
2023-05-01T18:23:37.220Z,10.70
2023-05-01T18:25:09.601Z,11.88
2023-05-01T18:26:41.706Z,11.38
2023-05-01T18:28:16.635Z,15.90
2023-05-01T18:29:48.859Z,8.75
2023-05-01T18:31:21.054Z,11.75
2023-05-01T18:32:54.111Z,9.40
2023-05-01T18:34:26.338Z,12.95
2023-05-01T18:35:58.338Z,13.65
2023-05-01T18:37:30.308Z,13.27
2023-05-01T18:39:02.295Z,20.10
2023-05-01T18:40:34.457Z,11.30
2023-05-01T18:42:06.588Z,11.40
2023-05-01T18:43:38.638Z,11.40
2023-05-01T18:45:10.894Z,12.25
2023-05-01T18:46:43.368Z,14.02
2023-05-01T18:48:15.358Z,14.35
2023-05-01T18:49:47.418Z,12.80
2023-05-01T18:51:19.426Z,12.20
2023-05-01T18:52:51.369Z,10.82
2023-05-01T18:54:23.497Z,12.02
2023-05-01T18:55:55.516Z,13.93
2023-05-01T18:57:28.852Z,10.93
2023-05-01T18:59:01.274Z,10.10
2023-05-01T19:00:33.228Z,10.50
2023-05-01T19:02:05.427Z,11.20
2023-05-01T19:03:37.547Z,12.82
2023-05-01T19:05:10.051Z,12.23
2023-05-01T19:06:42.147Z,13.30
2023-05-01T19:08:14.077Z,27.33
2023-05-01T19:09:46.237Z,12.17
2023-05-01T19:11:18.112Z,13.73
2023-05-01T19:12:50.026Z,12.85
2023-05-01T19:14:25.169Z,12.63
2023-05-01T19:15:59.916Z,12.15
2023-05-01T19:17:32.380Z,13.77
2023-05-01T19:19:04.323Z,15.05
2023-05-01T19:20:36.327Z,14.13
2023-05-01T19:22:08.380Z,12.90
2023-05-01T19:23:41.629Z,12.55
2023-05-01T19:25:13.566Z,15.55
2023-05-01T19:26:45.607Z,16.48
2023-05-01T19:28:17.564Z,15.50
2023-05-01T19:29:50.562Z,18.50
2023-05-01T19:32:54.705Z,15.13
2023-05-01T19:34:27.456Z,14.13
2023-05-01T19:35:59.464Z,16.23
2023-05-01T19:37:31.610Z,14.50
2023-05-01T19:39:04.846Z,17.00
2023-05-01T19:40:37.145Z,14.75
2023-05-01T19:42:10.056Z,14.25
2023-05-01T19:43:42.773Z,17.13
2023-05-01T19:45:16.332Z,16.98
2023-05-01T19:46:49.739Z,12.45
2023-05-01T19:48:22.270Z,15.38
2023-05-01T19:49:54.283Z,17.05
2023-05-01T19:51:26.708Z,12.82
2023-05-01T19:53:00.091Z,17.00
2023-05-01T19:54:32.093Z,18.05
2023-05-01T19:56:04.080Z,15.77
2023-05-01T19:57:38.065Z,13.85
2023-05-01T19:59:10.260Z,14.70
2023-05-01T20:00:42.558Z,14.70
2023-05-01T20:02:15.708Z,15.13
2023-05-01T20:03:47.857Z,13.68
2023-05-01T20:05:20.150Z,14.38
2023-05-01T20:06:52.250Z,14.73
2023-05-01T20:08:24.436Z,18.83
2023-05-01T20:09:56.991Z,15.40
2023-05-01T20:11:29.155Z,15.77
2023-05-01T20:13:01.895Z,16.35
2023-05-01T20:14:34.240Z,17.00
2023-05-01T20:16:06.636Z,13.77
2023-05-01T20:17:38.689Z,18.65
2023-05-01T20:19:10.981Z,17.25
2023-05-01T20:20:43.141Z,16.92
2023-05-01T20:22:15.081Z,17.55
2023-05-01T20:23:47.063Z,18.17
2023-05-01T20:25:19.007Z,17.65
2023-05-01T20:26:54.208Z,19.65
2023-05-01T20:28:27.217Z,16.30
2023-05-01T20:29:59.880Z,16.02
2023-05-01T20:33:04.561Z,17.60
2023-05-01T20:34:36.554Z,16.70
2023-05-01T20:36:09.010Z,18.00
2023-05-01T20:37:41.214Z,18.40
2023-05-01T20:39:13.142Z,17.35
2023-05-01T20:40:45.230Z,19.48
2023-05-01T20:42:17.419Z,17.95
2023-05-01T20:43:49.285Z,19.92
2023-05-01T20:45:21.499Z,19.13
2023-05-01T20:46:53.752Z,19.25
2023-05-01T20:48:26.177Z,21.95
2023-05-01T20:49:58.400Z,20.45
2023-05-01T20:51:32.348Z,23.27
2023-05-01T20:53:04.315Z,24.05
2023-05-01T20:54:37.311Z,19.98
2023-05-01T20:56:09.264Z,19.83
2023-05-01T20:57:41.292Z,23.00
2023-05-01T20:59:13.927Z,23.58
2023-05-01T21:00:45.878Z,20.95
2023-05-01T21:02:18.003Z,23.50
2023-05-01T21:03:50.217Z,26.08
2023-05-01T21:05:22.213Z,22.50
2023-05-01T21:06:54.265Z,25.05
2023-05-01T21:08:29.519Z,23.38
2023-05-01T21:10:01.569Z,25.85
2023-05-01T21:11:33.633Z,25.25
2023-05-01T21:13:05.877Z,25.90
2023-05-01T21:14:38.778Z,27.80
2023-05-01T21:17:43.599Z,28.17
2023-05-01T21:20:48.927Z,27.10
2023-05-01T21:22:22.406Z,31.15
2023-05-01T21:23:54.359Z,29.33
2023-05-01T21:25:27.824Z,32.20
2023-05-01T21:27:01.745Z,31.63
2023-05-01T21:28:33.636Z,32.20
2023-05-01T21:30:06.568Z,35.13